sensor_id;sensor_type;location;lat;lon;timestamp;pressure;altitude;pressure_sealevel;temperature
15701;BMP180;7950;42.744;23.174;2024-02-21T00:01:16;95010.94;;;5.97
15701;BMP180;7950;42.744;23.174;2024-02-21T00:03:45;95016.50;;;6.07
15701;BMP180;7950;42.744;23.174;2024-02-21T00:06:15;95007.53;;;6.03
15701;BMP180;7950;42.744;23.174;2024-02-21T00:08:43;95011.97;;;5.96
15701;BMP180;7950;42.744;23.174;2024-02-21T00:11:12;95009.16;;;5.97
15701;BMP180;7950;42.744;23.174;2024-02-21T00:13:41;95008.94;;;5.99
15701;BMP180;7950;42.744;23.174;2024-02-21T00:16:09;95018.56;;;5.98
15701;BMP180;7950;42.744;23.174;2024-02-21T00:18:39;95005.53;;;5.98
15701;BMP180;7950;42.744;23.174;2024-02-21T00:21:07;95014.97;;;5.93
15701;BMP180;7950;42.744;23.174;2024-02-21T00:23:37;95003.13;;;5.97
15701;BMP180;7950;42.744;23.174;2024-02-21T00:26:06;95005.72;;;5.97
15701;BMP180;7950;42.744;23.174;2024-02-21T00:28:35;95011.56;;;5.99
15701;BMP180;7950;42.744;23.174;2024-02-21T00:31:03;95004.00;;;5.84
15701;BMP180;7950;42.744;23.174;2024-02-21T00:33:32;94995.16;;;5.85
15701;BMP180;7950;42.744;23.174;2024-02-21T00:36:00;95000.75;;;5.89
15701;BMP180;7950;42.744;23.174;2024-02-21T00:38:29;95001.75;;;5.94
15701;BMP180;7950;42.744;23.174;2024-02-21T00:40:59;94992.50;;;5.98
15701;BMP180;7950;42.744;23.174;2024-02-21T00:43:27;94993.31;;;5.99
15701;BMP180;7950;42.744;23.174;2024-02-21T00:45:56;95001.06;;;6.12
15701;BMP180;7950;42.744;23.174;2024-02-21T00:48:24;95003.06;;;6.10
15701;BMP180;7950;42.744;23.174;2024-02-21T00:50:53;95000.88;;;6.07
15701;BMP180;7950;42.744;23.174;2024-02-21T00:53:21;94999.88;;;6.08
15701;BMP180;7950;42.744;23.174;2024-02-21T00:55:50;94996.84;;;6.11
15701;BMP180;7950;42.744;23.174;2024-02-21T00:58:20;94992.44;;;6.11
15701;BMP180;7950;42.744;23.174;2024-02-21T01:00:49;94985.28;;;6.00
15701;BMP180;7950;42.744;23.174;2024-02-21T01:03:17;94985.50;;;5.99
15701;BMP180;7950;42.744;23.174;2024-02-21T01:05:46;94983.88;;;5.98
15701;BMP180;7950;42.744;23.174;2024-02-21T01:08:15;94977.69;;;5.99
15701;BMP180;7950;42.744;23.174;2024-02-21T01:10:43;94971.47;;;6.00
15701;BMP180;7950;42.744;23.174;2024-02-21T01:13:12;94975.66;;;6.01
15701;BMP180;7950;42.744;23.174;2024-02-21T01:15:42;94968.66;;;6.01
15701;BMP180;7950;42.744;23.174;2024-02-21T01:18:11;94975.66;;;6.01
15701;BMP180;7950;42.744;23.174;2024-02-21T01:20:40;94969.88;;;5.99
15701;BMP180;7950;42.744;23.174;2024-02-21T01:23:08;94975.09;;;5.99
15701;BMP180;7950;42.744;23.174;2024-02-21T01:25:37;94963.06;;;5.98
15701;BMP180;7950;42.744;23.174;2024-02-21T01:28:05;94967.34;;;5.86
15701;BMP180;7950;42.744;23.174;2024-02-21T01:30:35;94957.91;;;5.85
15701;BMP180;7950;42.744;23.174;2024-02-21T01:33:05;94959.72;;;5.91
15701;BMP180;7950;42.744;23.174;2024-02-21T01:35:34;94958.56;;;5.80
15701;BMP180;7950;42.744;23.174;2024-02-21T01:38:03;94959.94;;;5.76
15701;BMP180;7950;42.744;23.174;2024-02-21T01:40:32;94959.13;;;5.76
15701;BMP180;7950;42.744;23.174;2024-02-21T01:43:00;94953.94;;;5.69
15701;BMP180;7950;42.744;23.174;2024-02-21T01:45:29;94955.13;;;5.73
15701;BMP180;7950;42.744;23.174;2024-02-21T01:47:58;94949.16;;;5.73
15701;BMP180;7950;42.744;23.174;2024-02-21T01:50:29;94951.31;;;5.76
15701;BMP180;7950;42.744;23.174;2024-02-21T01:52:57;94946.34;;;5.81
15701;BMP180;7950;42.744;23.174;2024-02-21T01:55:26;94943.09;;;5.85
15701;BMP180;7950;42.744;23.174;2024-02-21T01:57:55;94947.50;;;5.85
15701;BMP180;7950;42.744;23.174;2024-02-21T02:00:24;94948.31;;;5.85
15701;BMP180;7950;42.744;23.174;2024-02-21T02:02:53;94951.50;;;5.87
15701;BMP180;7950;42.744;23.174;2024-02-21T02:05:23;94944.91;;;5.78
15701;BMP180;7950;42.744;23.174;2024-02-21T02:07:52;94945.13;;;5.83
15701;BMP180;7950;42.744;23.174;2024-02-21T02:10:21;94944.91;;;5.72
15701;BMP180;7950;42.744;23.174;2024-02-21T02:12:50;94947.53;;;5.72
15701;BMP180;7950;42.744;23.174;2024-02-21T02:15:18;94939.97;;;5.64
15701;BMP180;7950;42.744;23.174;2024-02-21T02:17:47;94931.19;;;5.58
15701;BMP180;7950;42.744;23.174;2024-02-21T02:20:15;94940.81;;;5.51
15701;BMP180;7950;42.744;23.174;2024-02-21T02:22:47;94931.41;;;5.50
15701;BMP180;7950;42.744;23.174;2024-02-21T02:25:19;94936.47;;;5.39
15701;BMP180;7950;42.744;23.174;2024-02-21T02:27:47;94931.28;;;5.32
15701;BMP180;7950;42.744;23.174;2024-02-21T02:30:16;94927.31;;;5.23
15701;BMP180;7950;42.744;23.174;2024-02-21T02:32:45;94935.72;;;5.19
15701;BMP180;7950;42.744;23.174;2024-02-21T02:35:14;94933.94;;;5.13
15701;BMP180;7950;42.744;23.174;2024-02-21T02:37:48;94927.34;;;5.04
15701;BMP180;7950;42.744;23.174;2024-02-21T02:40:19;94925.94;;;5.08
15701;BMP180;7950;42.744;23.174;2024-02-21T02:42:48;94921.97;;;4.99
15701;BMP180;7950;42.744;23.174;2024-02-21T02:45:17;94935.19;;;4.78
15701;BMP180;7950;42.744;23.174;2024-02-21T02:47:46;94932.00;;;4.76
15701;BMP180;7950;42.744;23.174;2024-02-21T02:50:15;94932.00;;;4.69
15701;BMP180;7950;42.744;23.174;2024-02-21T02:52:44;94933.03;;;4.62
15701;BMP180;7950;42.744;23.174;2024-02-21T02:55:12;94934.63;;;4.63
15701;BMP180;7950;42.744;23.174;2024-02-21T02:57:43;94933.41;;;4.52
15701;BMP180;7950;42.744;23.174;2024-02-21T03:00:13;94933.22;;;4.41
15701;BMP180;7950;42.744;23.174;2024-02-21T03:02:43;94931.63;;;4.40
15701;BMP180;7950;42.744;23.174;2024-02-21T03:05:14;94931.41;;;4.41
15701;BMP180;7950;42.744;23.174;2024-02-21T03:07:44;94935.81;;;4.28
15701;BMP180;7950;42.744;23.174;2024-02-21T03:10:14;94930.00;;;4.32
15701;BMP180;7950;42.744;23.174;2024-02-21T03:12:46;94940.19;;;4.34
15701;BMP180;7950;42.744;23.174;2024-02-21T03:15:15;94940.00;;;4.29
15701;BMP180;7950;42.744;23.174;2024-02-21T03:17:43;94940.59;;;4.24
15701;BMP180;7950;42.744;23.174;2024-02-21T03:20:12;94942.78;;;4.21
15701;BMP180;7950;42.744;23.174;2024-02-21T03:22:41;94941.59;;;4.30
15701;BMP180;7950;42.744;23.174;2024-02-21T03:25:10;94945.78;;;4.24
15701;BMP180;7950;42.744;23.174;2024-02-21T03:27:39;94950.56;;;4.14
15701;BMP180;7950;42.744;23.174;2024-02-21T03:30:10;94939.78;;;4.30
15701;BMP180;7950;42.744;23.174;2024-02-21T03:32:39;94951.78;;;4.38
15701;BMP180;7950;42.744;23.174;2024-02-21T03:35:08;94947.41;;;4.38
15701;BMP180;7950;42.744;23.174;2024-02-21T03:37:37;94955.38;;;4.37
15701;BMP180;7950;42.744;23.174;2024-02-21T03:40:09;94958.19;;;4.42
15701;BMP180;7950;42.744;23.174;2024-02-21T03:42:38;94943.59;;;4.41
15701;BMP180;7950;42.744;23.174;2024-02-21T03:45:09;94959.00;;;4.36
15701;BMP180;7950;42.744;23.174;2024-02-21T03:47:38;94961.78;;;4.41
15701;BMP180;7950;42.744;23.174;2024-02-21T03:50:07;94961.97;;;4.39
15701;BMP180;7950;42.744;23.174;2024-02-21T03:52:36;94958.81;;;4.37
15701;BMP180;7950;42.744;23.174;2024-02-21T03:55:06;94960.97;;;4.34
15701;BMP180;7950;42.744;23.174;2024-02-21T03:57:35;94956.97;;;4.38
15701;BMP180;7950;42.744;23.174;2024-02-21T04:00:06;94963.00;;;4.38
15701;BMP180;7950;42.744;23.174;2024-02-21T04:02:39;94957.81;;;4.45
15701;BMP180;7950;42.744;23.174;2024-02-21T04:05:08;94949.81;;;4.53
15701;BMP180;7950;42.744;23.174;2024-02-21T04:07:39;94957.81;;;4.58
15701;BMP180;7950;42.744;23.174;2024-02-21T04:10:08;94960.78;;;4.61
15701;BMP180;7950;42.744;23.174;2024-02-21T04:12:37;94957.19;;;4.62
15701;BMP180;7950;42.744;23.174;2024-02-21T04:15:07;94961.00;;;4.60
15701;BMP180;7950;42.744;23.174;2024-02-21T04:17:36;94956.59;;;4.54
15701;BMP180;7950;42.744;23.174;2024-02-21T04:20:13;94962.81;;;4.53
15701;BMP180;7950;42.744;23.174;2024-02-21T04:22:43;94959.59;;;4.51
15701;BMP180;7950;42.744;23.174;2024-02-21T04:25:12;94968.78;;;4.47
15701;BMP180;7950;42.744;23.174;2024-02-21T04:27:41;94950.97;;;4.44
15701;BMP180;7950;42.744;23.174;2024-02-21T04:30:11;94964.78;;;4.44
15701;BMP180;7950;42.744;23.174;2024-02-21T04:32:39;94960.19;;;4.46
15701;BMP180;7950;42.744;23.174;2024-02-21T04:35:09;94963.78;;;4.52
15701;BMP180;7950;42.744;23.174;2024-02-21T04:37:38;94964.19;;;4.49
15701;BMP180;7950;42.744;23.174;2024-02-21T04:40:08;94963.78;;;4.52
15701;BMP180;7950;42.744;23.174;2024-02-21T04:42:37;94963.78;;;4.58
15701;BMP180;7950;42.744;23.174;2024-02-21T04:45:07;94967.00;;;4.60
15701;BMP180;7950;42.744;23.174;2024-02-21T04:47:36;94980.19;;;4.52
15701;BMP180;7950;42.744;23.174;2024-02-21T04:50:06;94975.38;;;4.43
15701;BMP180;7950;42.744;23.174;2024-02-21T04:52:36;94963.97;;;4.31
15701;BMP180;7950;42.744;23.174;2024-02-21T04:55:05;94957.16;;;4.17
15701;BMP180;7950;42.744;23.174;2024-02-21T04:57:34;94961.97;;;4.20
15701;BMP180;7950;42.744;23.174;2024-02-21T05:00:04;94965.72;;;4.04
15701;BMP180;7950;42.744;23.174;2024-02-21T05:02:32;94973.44;;;3.85
15701;BMP180;7950;42.744;23.174;2024-02-21T05:05:01;94973.28;;;3.93
15701;BMP180;7950;42.744;23.174;2024-02-21T05:07:30;94975.25;;;3.91
15701;BMP180;7950;42.744;23.174;2024-02-21T05:10:00;94976.44;;;3.88
15701;BMP180;7950;42.744;23.174;2024-02-21T05:12:29;94976.88;;;3.85
15701;BMP180;7950;42.744;23.174;2024-02-21T05:14:58;94976.06;;;3.85
15701;BMP180;7950;42.744;23.174;2024-02-21T05:17:27;94970.88;;;3.85
15701;BMP180;7950;42.744;23.174;2024-02-21T05:19:55;94973.84;;;3.88
15701;BMP180;7950;42.744;23.174;2024-02-21T05:22:24;94970.72;;;3.99
15701;BMP180;7950;42.744;23.174;2024-02-21T05:24:53;94975.91;;;4.06
15701;BMP180;7950;42.744;23.174;2024-02-21T05:27:23;94974.13;;;4.13
15701;BMP180;7950;42.744;23.174;2024-02-21T05:29:53;94971.53;;;4.13
15701;BMP180;7950;42.744;23.174;2024-02-21T05:32:21;94974.72;;;4.15
15701;BMP180;7950;42.744;23.174;2024-02-21T05:34:50;94971.75;;;4.18
15701;BMP180;7950;42.744;23.174;2024-02-21T05:37:19;94971.13;;;4.09
15701;BMP180;7950;42.744;23.174;2024-02-21T05:39:47;94972.94;;;4.15
15701;BMP180;7950;42.744;23.174;2024-02-21T05:42:16;94978.53;;;4.19
15701;BMP180;7950;42.744;23.174;2024-02-21T05:44:46;94975.34;;;4.23
15701;BMP180;7950;42.744;23.174;2024-02-21T05:47:14;94981.94;;;4.26
15701;BMP180;7950;42.744;23.174;2024-02-21T05:49:43;94988.16;;;4.38
15701;BMP180;7950;42.744;23.174;2024-02-21T05:52:11;94988.97;;;4.45
15701;BMP180;7950;42.744;23.174;2024-02-21T05:54:40;94996.78;;;4.51
15701;BMP180;7950;42.744;23.174;2024-02-21T05:57:08;94991.34;;;4.59
15701;BMP180;7950;42.744;23.174;2024-02-21T05:59:38;94993.75;;;4.67
15701;BMP180;7950;42.744;23.174;2024-02-21T06:02:10;94995.78;;;4.78
15701;BMP180;7950;42.744;23.174;2024-02-21T06:04:40;95003.75;;;4.96
15701;BMP180;7950;42.744;23.174;2024-02-21T06:07:10;95003.75;;;5.03
15701;BMP180;7950;42.744;23.174;2024-02-21T06:09:38;95004.34;;;5.11
15701;BMP180;7950;42.744;23.174;2024-02-21T06:12:07;94999.75;;;5.13
15701;BMP180;7950;42.744;23.174;2024-02-21T06:14:36;95011.34;;;5.24
15701;BMP180;7950;42.744;23.174;2024-02-21T06:17:04;95007.72;;;5.31
15701;BMP180;7950;42.744;23.174;2024-02-21T06:19:34;95003.91;;;5.40
15701;BMP180;7950;42.744;23.174;2024-02-21T06:22:03;95004.47;;;5.49
15701;BMP180;7950;42.744;23.174;2024-02-21T06:24:35;95009.66;;;5.49
15701;BMP180;7950;42.744;23.174;2024-02-21T06:27:05;95024.84;;;5.65
15701;BMP180;7950;42.744;23.174;2024-02-21T06:29:37;95017.81;;;5.72
15701;BMP180;7950;42.744;23.174;2024-02-21T06:32:06;95020.19;;;5.80
15701;BMP180;7950;42.744;23.174;2024-02-21T06:34:36;95022.03;;;5.86
15701;BMP180;7950;42.744;23.174;2024-02-21T06:37:05;95029.84;;;5.86
15701;BMP180;7950;42.744;23.174;2024-02-21T06:39:35;95031.63;;;5.85
15701;BMP180;7950;42.744;23.174;2024-02-21T06:42:05;95028.59;;;5.95
15701;BMP180;7950;42.744;23.174;2024-02-21T06:44:33;95027.53;;;6.09
15701;BMP180;7950;42.744;23.174;2024-02-21T06:47:07;95025.88;;;6.21
15701;BMP180;7950;42.744;23.174;2024-02-21T06:49:37;95027.84;;;6.25
15701;BMP180;7950;42.744;23.174;2024-02-21T06:52:06;95020.59;;;6.34
15701;BMP180;7950;42.744;23.174;2024-02-21T06:54:35;95032.94;;;6.45
15701;BMP180;7950;42.744;23.174;2024-02-21T06:57:04;95032.50;;;6.54
15701;BMP180;7950;42.744;23.174;2024-02-21T06:59:32;95034.63;;;6.64
15701;BMP180;7950;42.744;23.174;2024-02-21T07:02:01;95036.41;;;6.70
15701;BMP180;7950;42.744;23.174;2024-02-21T07:04:30;95033.97;;;6.75
15701;BMP180;7950;42.744;23.174;2024-02-21T07:07:00;95037.97;;;6.77
15701;BMP180;7950;42.744;23.174;2024-02-21T07:09:29;95039.34;;;6.80
15701;BMP180;7950;42.744;23.174;2024-02-21T07:11:59;95038.69;;;6.84
15701;BMP180;7950;42.744;23.174;2024-02-21T07:14:28;95031.84;;;6.90
15701;BMP180;7950;42.744;23.174;2024-02-21T07:16:57;95033.31;;;7.04
15701;BMP180;7950;42.744;23.174;2024-02-21T07:19:25;95035.09;;;7.10
15701;BMP180;7950;42.744;23.174;2024-02-21T07:21:54;95032.03;;;7.13
15701;BMP180;7950;42.744;23.174;2024-02-21T07:24:25;95038.03;;;7.20
15701;BMP180;7950;42.744;23.174;2024-02-21T07:26:53;95037.53;;;7.29
15701;BMP180;7950;42.744;23.174;2024-02-21T07:29:23;95029.81;;;7.41
15701;BMP180;7950;42.744;23.174;2024-02-21T07:31:51;95038.75;;;7.51
15701;BMP180;7950;42.744;23.174;2024-02-21T07:34:21;95039.59;;;7.63
15701;BMP180;7950;42.744;23.174;2024-02-21T07:36:49;95038.09;;;7.74
15701;BMP180;7950;42.744;23.174;2024-02-21T07:39:18;95046.31;;;7.77
15701;BMP180;7950;42.744;23.174;2024-02-21T07:41:48;95040.22;;;7.83
15701;BMP180;7950;42.744;23.174;2024-02-21T07:44:16;95038.53;;;7.89
15701;BMP180;7950;42.744;23.174;2024-02-21T07:46:45;95039.47;;;7.94
15701;BMP180;7950;42.744;23.174;2024-02-21T07:49:13;95039.78;;;8.04
15701;BMP180;7950;42.744;23.174;2024-02-21T07:51:42;95035.25;;;8.11
15701;BMP180;7950;42.744;23.174;2024-02-21T07:54:11;95037.38;;;8.21
15701;BMP180;7950;42.744;23.174;2024-02-21T07:56:43;95023.66;;;8.25
15701;BMP180;7950;42.744;23.174;2024-02-21T07:59:13;95030.41;;;8.33
15701;BMP180;7950;42.744;23.174;2024-02-21T08:01:42;95034.81;;;8.32
15701;BMP180;7950;42.744;23.174;2024-02-21T08:04:12;95036.31;;;8.40
15701;BMP180;7950;42.744;23.174;2024-02-21T08:06:42;95034.75;;;8.39
15701;BMP180;7950;42.744;23.174;2024-02-21T08:09:12;95040.59;;;8.52
15701;BMP180;7950;42.744;23.174;2024-02-21T08:11:40;95028.44;;;8.58
15701;BMP180;7950;42.744;23.174;2024-02-21T08:14:09;95030.84;;;8.59
15701;BMP180;7950;42.744;23.174;2024-02-21T08:16:39;95028.31;;;8.53
15701;BMP180;7950;42.744;23.174;2024-02-21T08:19:07;95024.53;;;8.49
15701;BMP180;7950;42.744;23.174;2024-02-21T08:21:37;95028.19;;;8.48
15701;BMP180;7950;42.744;23.174;2024-02-21T08:24:06;95032.66;;;8.59
15701;BMP180;7950;42.744;23.174;2024-02-21T08:26:34;95035.97;;;8.66
15701;BMP180;7950;42.744;23.174;2024-02-21T08:29:03;95030.88;;;8.71
15701;BMP180;7950;42.744;23.174;2024-02-21T08:31:32;95029.63;;;8.73
15701;BMP180;7950;42.744;23.174;2024-02-21T08:34:03;95040.44;;;8.77
15701;BMP180;7950;42.744;23.174;2024-02-21T08:36:33;95032.84;;;8.87
15701;BMP180;7950;42.744;23.174;2024-02-21T08:39:03;95039.69;;;8.99
15701;BMP180;7950;42.744;23.174;2024-02-21T08:41:32;95044.38;;;8.98
15701;BMP180;7950;42.744;23.174;2024-02-21T08:44:22;95041.06;;;9.02
15701;BMP180;7950;42.744;23.174;2024-02-21T08:46:53;95049.81;;;8.96
15701;BMP180;7950;42.744;23.174;2024-02-21T08:49:23;95042.41;;;8.93
15701;BMP180;7950;42.744;23.174;2024-02-21T08:52:00;95037.38;;;8.80
15701;BMP180;7950;42.744;23.174;2024-02-21T08:54:29;95036.22;;;8.76
15701;BMP180;7950;42.744;23.174;2024-02-21T08:56:58;95043.66;;;8.90
15701;BMP180;7950;42.744;23.174;2024-02-21T08:59:27;95039.13;;;8.98
15701;BMP180;7950;42.744;23.174;2024-02-21T09:01:55;95047.66;;;9.04
15701;BMP180;7950;42.744;23.174;2024-02-21T09:04:25;95037.56;;;9.08
15701;BMP180;7950;42.744;23.174;2024-02-21T09:06:54;95044.38;;;9.09
15701;BMP180;7950;42.744;23.174;2024-02-21T09:09:23;95047.22;;;8.96
15701;BMP180;7950;42.744;23.174;2024-02-21T09:11:55;95045.28;;;9.03
15701;BMP180;7950;42.744;23.174;2024-02-21T09:14:33;95041.78;;;9.09
15701;BMP180;7950;42.744;23.174;2024-02-21T09:17:01;95033.59;;;9.17
15701;BMP180;7950;42.744;23.174;2024-02-21T09:19:32;95030.19;;;9.40
15701;BMP180;7950;42.744;23.174;2024-02-21T09:22:01;95033.25;;;9.71
15701;BMP180;7950;42.744;23.174;2024-02-21T09:24:29;95026.03;;;10.01
15701;BMP180;7950;42.744;23.174;2024-02-21T09:26:57;95025.66;;;10.32
15701;BMP180;7950;42.744;23.174;2024-02-21T09:29:27;95023.09;;;10.65
15701;BMP180;7950;42.744;23.174;2024-02-21T09:31:55;95025.31;;;11.01
15701;BMP180;7950;42.744;23.174;2024-02-21T09:34:24;95026.34;;;11.17
15701;BMP180;7950;42.744;23.174;2024-02-21T09:36:54;95030.25;;;11.14
15701;BMP180;7950;42.744;23.174;2024-02-21T09:39:23;95018.25;;;11.02
15701;BMP180;7950;42.744;23.174;2024-02-21T09:41:59;95029.34;;;10.92
15701;BMP180;7950;42.744;23.174;2024-02-21T09:44:33;95020.03;;;10.85
15701;BMP180;7950;42.744;23.174;2024-02-21T09:47:10;95026.47;;;10.77
15701;BMP180;7950;42.744;23.174;2024-02-21T09:49:42;95025.50;;;10.67
15701;BMP180;7950;42.744;23.174;2024-02-21T09:52:15;95024.75;;;10.83
15701;BMP180;7950;42.744;23.174;2024-02-21T09:54:45;95029.19;;;10.82
15701;BMP180;7950;42.744;23.174;2024-02-21T09:57:14;95026.03;;;10.69
15701;BMP180;7950;42.744;23.174;2024-02-21T09:59:44;95018.22;;;10.85
15701;BMP180;7950;42.744;23.174;2024-02-21T10:02:13;95021.97;;;10.89
15701;BMP180;7950;42.744;23.174;2024-02-21T10:04:42;95013.13;;;10.95
15701;BMP180;7950;42.744;23.174;2024-02-21T10:07:12;95020.88;;;11.02
15701;BMP180;7950;42.744;23.174;2024-02-21T10:09:40;95016.19;;;11.20
15701;BMP180;7950;42.744;23.174;2024-02-21T10:12:13;95010.94;;;11.20
15701;BMP180;7950;42.744;23.174;2024-02-21T10:14:42;95012.97;;;11.18
15701;BMP180;7950;42.744;23.174;2024-02-21T10:17:18;95005.03;;;10.97
15701;BMP180;7950;42.744;23.174;2024-02-21T10:19:47;94998.75;;;11.14
15701;BMP180;7950;42.744;23.174;2024-02-21T10:22:19;94990.94;;;11.19
15701;BMP180;7950;42.744;23.174;2024-02-21T10:24:48;94991.31;;;11.44
15701;BMP180;7950;42.744;23.174;2024-02-21T10:27:17;94984.63;;;11.53
15701;BMP180;7950;42.744;23.174;2024-02-21T10:29:49;94980.47;;;11.57
15701;BMP180;7950;42.744;23.174;2024-02-21T10:32:18;94969.59;;;11.65
15701;BMP180;7950;42.744;23.174;2024-02-21T10:34:47;94968.44;;;11.78
15701;BMP180;7950;42.744;23.174;2024-02-21T10:37:21;94958.91;;;11.72
15701;BMP180;7950;42.744;23.174;2024-02-21T10:39:49;94958.09;;;11.71
15701;BMP180;7950;42.744;23.174;2024-02-21T10:42:21;94952.47;;;11.63
15701;BMP180;7950;42.744;23.174;2024-02-21T10:44:51;94951.19;;;11.65
15701;BMP180;7950;42.744;23.174;2024-02-21T10:47:23;94945.47;;;11.68
15701;BMP180;7950;42.744;23.174;2024-02-21T10:50:02;94935.19;;;11.88
15701;BMP180;7950;42.744;23.174;2024-02-21T10:52:48;94938.72;;;11.99
15701;BMP180;7950;42.744;23.174;2024-02-21T10:55:26;94926.38;;;11.99
15701;BMP180;7950;42.744;23.174;2024-02-21T10:57:56;94909.41;;;12.12
15701;BMP180;7950;42.744;23.174;2024-02-21T11:00:27;94912.78;;;12.07
15701;BMP180;7950;42.744;23.174;2024-02-21T11:02:58;94921.00;;;11.68
15701;BMP180;7950;42.744;23.174;2024-02-21T11:05:29;94912.81;;;11.48
15701;BMP180;7950;42.744;23.174;2024-02-21T11:07:59;94908.44;;;11.15
15701;BMP180;7950;42.744;23.174;2024-02-21T11:10:28;94916.06;;;11.17
15701;BMP180;7950;42.744;23.174;2024-02-21T11:13:07;94910.66;;;11.07
15701;BMP180;7950;42.744;23.174;2024-02-21T11:15:36;94917.75;;;10.90
15701;BMP180;7950;42.744;23.174;2024-02-21T11:18:05;94910.44;;;10.75
15701;BMP180;7950;42.744;23.174;2024-02-21T11:20:35;94912.34;;;10.80
15701;BMP180;7950;42.744;23.174;2024-02-21T11:23:05;94908.47;;;10.82
15701;BMP180;7950;42.744;23.174;2024-02-21T11:25:34;94905.28;;;10.64
15701;BMP180;7950;42.744;23.174;2024-02-21T11:28:04;94899.63;;;10.72
15701;BMP180;7950;42.744;23.174;2024-02-21T11:30:36;94898.34;;;10.74
15701;BMP180;7950;42.744;23.174;2024-02-21T11:33:07;94895.66;;;10.69
15701;BMP180;7950;42.744;23.174;2024-02-21T11:35:36;94893.25;;;10.68
15701;BMP180;7950;42.744;23.174;2024-02-21T11:38:11;94896.03;;;10.61
15701;BMP180;7950;42.744;23.174;2024-02-21T11:40:46;94898.44;;;10.63
15701;BMP180;7950;42.744;23.174;2024-02-21T11:43:15;94896.34;;;10.48
15701;BMP180;7950;42.744;23.174;2024-02-21T11:45:44;94885.41;;;10.51
15701;BMP180;7950;42.744;23.174;2024-02-21T11:48:14;94883.88;;;10.39
15701;BMP180;7950;42.744;23.174;2024-02-21T11:50:42;94883.53;;;10.35
15701;BMP180;7950;42.744;23.174;2024-02-21T11:53:22;94880.22;;;10.40
15701;BMP180;7950;42.744;23.174;2024-02-21T11:55:51;94883.88;;;10.39
15701;BMP180;7950;42.744;23.174;2024-02-21T11:58:19;94881.88;;;10.46
15701;BMP180;7950;42.744;23.174;2024-02-21T12:00:48;94876.56;;;10.41
15701;BMP180;7950;42.744;23.174;2024-02-21T12:03:17;94878.22;;;10.47
15701;BMP180;7950;42.744;23.174;2024-02-21T12:05:45;94874.97;;;10.40
15701;BMP180;7950;42.744;23.174;2024-02-21T12:08:15;94871.97;;;10.48
15701;BMP180;7950;42.744;23.174;2024-02-21T12:10:46;94867.84;;;10.52
15701;BMP180;7950;42.744;23.174;2024-02-21T12:13:23;94861.94;;;10.45
15701;BMP180;7950;42.744;23.174;2024-02-21T12:15:51;94864.41;;;10.51
15701;BMP180;7950;42.744;23.174;2024-02-21T12:18:20;94871.97;;;10.48
15701;BMP180;7950;42.744;23.174;2024-02-21T12:20:49;94860.44;;;10.49
15701;BMP180;7950;42.744;23.174;2024-02-21T12:23:18;94859.09;;;10.46
15701;BMP180;7950;42.744;23.174;2024-02-21T12:25:50;94856.00;;;10.49
15701;BMP180;7950;42.744;23.174;2024-02-21T12:28:21;94866.00;;;10.52
15701;BMP180;7950;42.744;23.174;2024-02-21T12:30:50;94864.81;;;10.43
15701;BMP180;7950;42.744;23.174;2024-02-21T12:33:21;94866.97;;;10.46
15701;BMP180;7950;42.744;23.174;2024-02-21T12:35:49;94864.88;;;10.48
15701;BMP180;7950;42.744;23.174;2024-02-21T12:38:18;94868.22;;;10.44
15701;BMP180;7950;42.744;23.174;2024-02-21T12:40:49;94862.25;;;10.48
15701;BMP180;7950;42.744;23.174;2024-02-21T12:43:18;94857.00;;;10.48
15701;BMP180;7950;42.744;23.174;2024-02-21T12:45:47;94866.22;;;10.34
15701;BMP180;7950;42.744;23.174;2024-02-21T12:48:15;94855.66;;;10.29
15701;BMP180;7950;42.744;23.174;2024-02-21T12:50:49;94853.78;;;10.13
15701;BMP180;7950;42.744;23.174;2024-02-21T12:53:19;94862.47;;;10.14
15701;BMP180;7950;42.744;23.174;2024-02-21T12:56:00;94856.56;;;10.07
15701;BMP180;7950;42.744;23.174;2024-02-21T12:58:29;94844.81;;;10.09
15701;BMP180;7950;42.744;23.174;2024-02-21T13:00:59;94845.63;;;10.10
15701;BMP180;7950;42.744;23.174;2024-02-21T13:03:27;94844.25;;;10.07
15701;BMP180;7950;42.744;23.174;2024-02-21T13:06:00;94840.06;;;10.06
15701;BMP180;7950;42.744;23.174;2024-02-21T13:08:28;94852.44;;;10.11
15701;BMP180;7950;42.744;23.174;2024-02-21T13:10:57;94826.09;;;10.17
15701;BMP180;7950;42.744;23.174;2024-02-21T13:13:27;94840.38;;;10.26
15701;BMP180;7950;42.744;23.174;2024-02-21T13:15:56;94839.25;;;10.22
15701;BMP180;7950;42.744;23.174;2024-02-21T13:18:25;94832.13;;;10.34
15701;BMP180;7950;42.744;23.174;2024-02-21T13:20:54;94825.31;;;10.33
15701;BMP180;7950;42.744;23.174;2024-02-21T13:23:23;94828.47;;;10.35
15701;BMP180;7950;42.744;23.174;2024-02-21T13:25:51;94819.09;;;10.39
15701;BMP180;7950;42.744;23.174;2024-02-21T13:28:20;94828.81;;;10.39
15701;BMP180;7950;42.744;23.174;2024-02-21T13:30:50;94832.78;;;10.25
15701;BMP180;7950;42.744;23.174;2024-02-21T13:33:18;94813.53;;;10.19
15701;BMP180;7950;42.744;23.174;2024-02-21T13:35:47;94811.78;;;10.08
15701;BMP180;7950;42.744;23.174;2024-02-21T13:38:16;94815.44;;;10.07
15701;BMP180;7950;42.744;23.174;2024-02-21T13:40:45;94813.16;;;9.99
15701;BMP180;7950;42.744;23.174;2024-02-21T13:43:14;94819.66;;;9.97
15701;BMP180;7950;42.744;23.174;2024-02-21T13:45:58;94824.81;;;10.20
15701;BMP180;7950;42.744;23.174;2024-02-21T13:48:26;94818.72;;;10.14
15701;BMP180;7950;42.744;23.174;2024-02-21T13:50:56;94816.63;;;10.16
15701;BMP180;7950;42.744;23.174;2024-02-21T13:53:25;94812.19;;;10.17
15701;BMP180;7950;42.744;23.174;2024-02-21T13:55:54;94818.16;;;10.01
15701;BMP180;7950;42.744;23.174;2024-02-21T13:58:22;94807.03;;;10.05
15701;BMP180;7950;42.744;23.174;2024-02-21T14:00:53;94813.84;;;10.06
15701;BMP180;7950;42.744;23.174;2024-02-21T14:03:26;94808.59;;;10.06
15701;BMP180;7950;42.744;23.174;2024-02-21T14:05:55;94816.34;;;10.01
15701;BMP180;7950;42.744;23.174;2024-02-21T14:08:23;94810.22;;;9.96
15701;BMP180;7950;42.744;23.174;2024-02-21T14:10:53;94811.56;;;9.98
15701;BMP180;7950;42.744;23.174;2024-02-21T14:13:23;94813.53;;;9.91
15701;BMP180;7950;42.744;23.174;2024-02-21T14:15:51;94803.94;;;9.80
15701;BMP180;7950;42.744;23.174;2024-02-21T14:18:20;94807.50;;;9.74
15701;BMP180;7950;42.744;23.174;2024-02-21T14:20:50;94818.81;;;9.63
15701;BMP180;7950;42.744;23.174;2024-02-21T14:23:19;94807.28;;;9.64
15701;BMP180;7950;42.744;23.174;2024-02-21T14:25:48;94819.25;;;9.60
15701;BMP180;7950;42.744;23.174;2024-02-21T14:28:17;94811.66;;;9.59
15701;BMP180;7950;42.744;23.174;2024-02-21T14:30:48;94810.19;;;9.51